Time;durP1;ratioP1;P1;durP2;ratioP2;P2;SDS_P1;SDS_P2;PMS_P1;PMS_P2;Temp;Humidity;BMP_temperature;BMP_pressure;BME280_temperature;BME280_humidity;BME280_pressure;Samples;Min_cycle;Max_cycle;Signal;HPM_P1;HPM_P2
2022/11/24 00:01:23;;;;;;;77.40;34.57;;;1.50;99.90;;;;;;8370751;28;20689;-80
2022/11/24 00:05:23;;;;;;;79.70;35.47;;;1.50;99.90;;;;;;8374667;28;20212;-80
2022/11/24 00:09:24;;;;;;;76.97;34.77;;;1.50;99.90;;;;;;8370859;28;20200;-80
2022/11/24 00:13:25;;;;;;;72.80;34.27;;;1.60;99.90;;;;;;8372134;28;20278;-80
2022/11/24 00:17:28;;;;;;;82.40;38.27;;;1.60;99.90;;;;;;8372009;28;20178;-80
2022/11/24 00:21:30;;;;;;;71.90;33.13;;;1.50;99.90;;;;;;8372843;28;20184;-80
2022/11/24 00:25:31;;;;;;;79.20;36.07;;;1.50;99.90;;;;;;8364901;28;20274;-80
2022/11/24 00:29:32;;;;;;;63.53;32.93;;;1.50;99.90;;;;;;8368295;28;20202;-80
2022/11/24 00:33:32;;;;;;;81.07;36.40;;;1.50;99.90;;;;;;8372283;28;20241;-80
2022/11/24 00:37:33;;;;;;;69.07;34.60;;;1.50;99.90;;;;;;8372167;28;20189;-80
2022/11/24 00:41:35;;;;;;;66.60;32.23;;;1.50;99.90;;;;;;8371612;28;20181;-80
2022/11/24 00:45:35;;;;;;;73.03;35.77;;;1.50;99.90;;;;;;8365610;28;20182;-79
2022/11/24 00:49:36;;;;;;;72.17;33.57;;;1.60;99.90;;;;;;8366622;28;20189;-79
2022/11/24 00:53:38;;;;;;;63.57;33.83;;;1.60;99.90;;;;;;8365081;28;20257;-80
2022/11/24 00:57:39;;;;;;;62.20;31.23;;;1.50;99.90;;;;;;8370153;28;20284;-78
2022/11/24 01:01:41;;;;;;;63.93;32.60;;;1.50;99.90;;;;;;8362771;28;20187;-78
2022/11/24 01:05:42;;;;;;;69.93;35.13;;;1.50;99.90;;;;;;8367909;28;20192;-79
2022/11/24 01:09:44;;;;;;;61.47;32.07;;;1.50;99.90;;;;;;8370748;28;20191;-78
2022/11/24 01:13:50;;;;;;;63.90;31.60;;;1.50;99.90;;;;;;8363152;28;20209;-78
2022/11/24 01:17:52;;;;;;;61.10;31.10;;;1.50;99.90;;;;;;8382201;28;20208;-78
2022/11/24 01:21:52;;;;;;;56.20;30.33;;;1.50;99.90;;;;;;8372088;28;20185;-78
2022/11/24 01:25:53;;;;;;;52.87;27.23;;;1.50;99.90;;;;;;8369709;28;20185;-78
2022/11/24 01:29:54;;;;;;;61.47;31.30;;;1.50;99.90;;;;;;8364415;28;20201;-78
2022/11/24 01:33:55;;;;;;;61.50;31.37;;;1.50;99.90;;;;;;8371929;28;20212;-78
2022/11/24 01:37:56;;;;;;;55.77;29.83;;;1.60;99.90;;;;;;8366797;28;20178;-78
2022/11/24 01:42:00;;;;;;;50.30;27.60;;;1.60;99.90;;;;;;8364670;28;20332;-78
2022/11/24 01:46:10;;;;;;;50.70;29.73;;;1.60;99.90;;;;;;8366169;28;20200;-78
2022/11/24 01:50:15;;;;;;;63.27;32.03;;;1.60;99.90;;;;;;8366673;28;20360;-78
2022/11/24 01:54:22;;;;;;;63.63;31.63;;;1.60;99.90;;;;;;8371546;28;20213;-78
2022/11/24 01:58:28;;;;;;;85.33;41.97;;;1.60;99.90;;;;;;8362608;28;20281;-79
2022/11/24 02:02:29;;;;;;;64.67;33.00;;;1.60;99.90;;;;;;8372210;28;20192;-78
2022/11/24 02:06:34;;;;;;;65.13;33.53;;;1.50;99.90;;;;;;8366853;28;20385;-78
2022/11/24 02:10:36;;;;;;;65.77;33.43;;;1.50;99.90;;;;;;8363206;28;20193;-78
2022/11/24 02:14:39;;;;;;;65.60;32.50;;;1.50;99.90;;;;;;8374512;28;20221;-78
2022/11/24 02:18:41;;;;;;;60.67;30.27;;;1.50;99.90;;;;;;8366851;28;20192;-78
2022/11/24 02:23:12;;;;;;;56.30;29.80;;;1.50;99.90;;;;;;8361177;28;20196;-78
2022/11/24 02:27:13;;;;;;;57.40;30.80;;;1.50;99.90;;;;;;8370225;28;20260;-78
2022/11/24 02:31:13;;;;;;;59.30;30.07;;;1.50;99.90;;;;;;8364875;28;20197;-78
2022/11/24 02:35:14;;;;;;;56.87;29.50;;;1.40;99.90;;;;;;8367215;28;20209;-78
2022/11/24 02:39:15;;;;;;;54.60;28.47;;;1.40;99.90;;;;;;8367239;28;20182;-78
2022/11/24 02:43:21;;;;;;;72.10;35.17;;;1.40;99.90;;;;;;8370386;28;20243;-79
2022/11/24 02:47:22;;;;;;;67.60;35.10;;;1.40;99.90;;;;;;8374284;28;20177;-78
2022/11/24 02:51:23;;;;;;;64.50;33.53;;;1.50;99.90;;;;;;8374760;28;20185;-78
2022/11/24 02:55:24;;;;;;;61.90;31.73;;;1.50;99.90;;;;;;8373644;28;20343;-79
2022/11/24 02:59:25;;;;;;;68.43;32.37;;;1.50;99.90;;;;;;8373500;28;20193;-78
2022/11/24 03:03:26;;;;;;;67.07;33.27;;;1.40;99.90;;;;;;8370500;28;20252;-78
2022/11/24 03:07:27;;;;;;;61.77;29.03;;;1.40;99.90;;;;;;8374275;28;20181;-78
2022/11/24 03:11:28;;;;;;;55.60;28.83;;;1.40;99.90;;;;;;8375818;28;20210;-78
2022/11/24 03:15:29;;;;;;;51.17;28.40;;;1.40;99.90;;;;;;8375446;28;20197;-79
2022/11/24 03:19:29;;;;;;;58.63;30.67;;;1.40;99.90;;;;;;8375619;28;20450;-78
2022/11/24 03:23:30;;;;;;;54.60;28.63;;;1.40;99.90;;;;;;8376108;28;20181;-78
2022/11/24 03:27:31;;;;;;;60.27;31.47;;;1.40;99.90;;;;;;8365818;28;20259;-78
2022/11/24 03:31:32;;;;;;;49.77;27.20;;;1.40;99.90;;;;;;8370538;28;20182;-79
2022/11/24 03:35:33;;;;;;;54.37;28.83;;;1.40;99.90;;;;;;8367817;28;20304;-78
2022/11/24 03:39:34;;;;;;;60.27;31.13;;;1.40;99.90;;;;;;8371620;28;20188;-78
2022/11/24 03:43:35;;;;;;;61.63;32.00;;;1.50;99.90;;;;;;8372817;28;20174;-79
2022/11/24 03:47:36;;;;;;;51.63;29.83;;;1.50;99.90;;;;;;8369290;28;20174;-78
2022/11/24 03:51:37;;;;;;;55.13;29.20;;;1.50;99.90;;;;;;8372057;28;20245;-78
2022/11/24 03:55:38;;;;;;;52.07;27.30;;;1.50;99.90;;;;;;8372218;28;20304;-78
2022/11/24 03:59:38;;;;;;;47.87;27.10;;;1.40;99.90;;;;;;8369144;28;20194;-78
2022/11/24 04:03:39;;;;;;;44.90;25.50;;;1.40;99.90;;;;;;8374413;28;20259;-78
2022/11/24 04:07:40;;;;;;;50.30;28.70;;;1.40;99.90;;;;;;8370885;28;20177;-78
2022/11/24 04:16:05;;;;;;;52.90;29.13;;;1.40;99.90;;;;;;8370506;28;20216;-78
2022/11/24 04:20:06;;;;;;;53.70;29.13;;;1.40;99.90;;;;;;8356041;28;20186;-78
2022/11/24 04:24:07;;;;;;;52.17;28.83;;;1.40;99.90;;;;;;8374257;28;20258;-78
2022/11/24 04:28:09;;;;;;;56.07;29.37;;;1.40;99.90;;;;;;8366241;28;20697;-78
2022/11/24 04:32:09;;;;;;;60.20;28.97;;;1.30;99.90;;;;;;8372107;28;20287;-79
2022/11/24 04:36:10;;;;;;;61.47;28.70;;;1.30;99.90;;;;;;8369655;28;20312;-78
2022/11/24 04:40:12;;;;;;;52.03;27.13;;;1.30;99.90;;;;;;8368629;28;20210;-78
2022/11/24 04:44:13;;;;;;;44.20;25.50;;;1.30;99.90;;;;;;8366230;28;20332;-77
2022/11/24 04:48:14;;;;;;;48.33;27.03;;;1.30;99.90;;;;;;8368048;28;20192;-78
2022/11/24 04:52:16;;;;;;;47.57;27.67;;;1.30;99.90;;;;;;8366839;28;20182;-79
2022/11/24 04:56:17;;;;;;;44.27;25.37;;;1.30;99.90;;;;;;8361952;28;20197;-78
2022/11/24 05:00:18;;;;;;;45.30;25.00;;;1.30;99.90;;;;;;8359610;28;20208;-79
2022/11/24 05:04:20;;;;;;;48.13;26.63;;;1.30;99.90;;;;;;8366732;28;20189;-78
2022/11/24 05:08:21;;;;;;;48.77;25.80;;;1.30;99.90;;;;;;8372391;28;20223;-78
2022/11/24 05:12:23;;;;;;;43.40;25.90;;;1.20;99.90;;;;;;8376042;28;20189;-78
2022/11/24 05:16:24;;;;;;;45.23;25.80;;;1.20;99.90;;;;;;8373012;28;20206;-79
2022/11/24 05:20:25;;;;;;;50.93;28.83;;;1.20;99.90;;;;;;8373343;28;20217;-78
2022/11/24 05:24:25;;;;;;;50.27;29.33;;;1.20;99.90;;;;;;8373805;28;20186;-79
2022/11/24 05:28:27;;;;;;;63.23;29.23;;;1.20;99.90;;;;;;8368108;28;20197;-79
2022/11/24 05:32:27;;;;;;;50.43;27.77;;;1.20;99.90;;;;;;8365089;28;20186;-78
2022/11/24 05:40:48;;;;;;;58.37;33.17;;;1.20;99.90;;;;;;8369669;28;20200;-78
2022/11/24 05:44:48;;;;;;;70.20;40.50;;;1.20;99.90;;;;;;8364509;28;20189;-78
2022/11/24 05:48:49;;;;;;;63.10;35.57;;;1.20;99.90;;;;;;8369198;28;20227;-78
2022/11/24 05:52:50;;;;;;;73.40;34.07;;;1.20;99.90;;;;;;8366973;28;20197;-78
2022/11/24 05:56:51;;;;;;;55.73;28.90;;;1.10;99.90;;;;;;8364835;28;20215;-78
2022/11/24 06:00:52;;;;;;;47.00;26.83;;;1.10;99.90;;;;;;8365395;28;20186;-78
2022/11/24 06:04:53;;;;;;;58.93;29.97;;;1.10;99.90;;;;;;8366901;28;20188;-78
2022/11/24 06:08:54;;;;;;;49.17;28.30;;;1.10;99.90;;;;;;8366025;28;20193;-78
2022/11/24 06:12:55;;;;;;;60.27;32.57;;;1.10;99.90;;;;;;8366780;28;20228;-78
2022/11/24 06:16:55;;;;;;;68.30;36.27;;;1.10;99.90;;;;;;8373337;28;20259;-78
2022/11/24 06:20:56;;;;;;;63.23;32.87;;;1.10;99.90;;;;;;8376809;28;20241;-78
2022/11/24 06:24:57;;;;;;;61.70;32.43;;;1.00;99.90;;;;;;8370917;28;20185;-78
2022/11/24 06:28:58;;;;;;;49.77;29.43;;;1.00;99.90;;;;;;8368873;28;20316;-78
2022/11/24 06:32:59;;;;;;;54.23;28.33;;;1.00;99.90;;;;;;8370356;28;20312;-78
2022/11/24 06:37:00;;;;;;;49.53;27.93;;;1.00;99.90;;;;;;8371358;28;20209;-79
2022/11/24 06:41:02;;;;;;;41.90;25.33;;;1.10;99.90;;;;;;8371840;28;20177;-79
2022/11/24 06:45:04;;;;;;;55.50;30.10;;;1.10;99.90;;;;;;8372003;28;20308;-79
2022/11/24 06:49:05;;;;;;;52.73;29.30;;;1.10;99.90;;;;;;8370966;28;20182;-78
2022/11/24 06:53:06;;;;;;;72.77;37.43;;;1.10;99.90;;;;;;8371634;28;20189;-79
2022/11/24 06:57:07;;;;;;;60.83;32.97;;;1.10;99.90;;;;;;8372999;28;20213;-79
2022/11/24 07:01:08;;;;;;;55.93;30.37;;;1.20;99.90;;;;;;8367213;28;20256;-79
2022/11/24 07:05:09;;;;;;;54.00;29.13;;;1.20;99.90;;;;;;8370191;28;20209;-79
2022/11/24 07:09:12;;;;;;;51.40;29.37;;;1.30;99.90;;;;;;8367551;28;20181;-79
2022/11/24 07:13:12;;;;;;;72.60;35.03;;;1.30;99.90;;;;;;8377800;28;20185;-79
2022/11/24 07:17:13;;;;;;;58.70;32.20;;;1.40;99.90;;;;;;8366468;28;20216;-79
2022/11/24 07:21:15;;;;;;;67.50;34.60;;;1.50;99.90;;;;;;8372419;28;20181;-79
2022/11/24 07:25:16;;;;;;;75.57;39.37;;;1.50;99.90;;;;;;8370736;28;20534;-79
2022/11/24 07:29:17;;;;;;;85.77;48.17;;;1.60;99.90;;;;;;8371690;28;20197;-78
2022/11/24 07:33:20;;;;;;;217.47;84.97;;;1.60;99.90;;;;;;8367777;28;20189;-79
2022/11/24 07:37:20;;;;;;;159.27;62.90;;;1.70;99.90;;;;;;8369220;28;20304;-79
2022/11/24 07:41:21;;;;;;;104.10;47.67;;;1.70;99.90;;;;;;8367542;28;20187;-79
2022/11/24 07:45:22;;;;;;;71.30;36.37;;;1.80;99.90;;;;;;8370092;28;20193;-79
2022/11/24 07:49:23;;;;;;;61.30;32.67;;;1.90;99.90;;;;;;8368823;28;20192;-79
2022/11/24 07:53:24;;;;;;;58.67;31.70;;;1.90;99.90;;;;;;8371068;28;20185;-79
2022/11/24 07:57:24;;;;;;;60.77;32.03;;;2.00;99.90;;;;;;8375023;28;20322;-78
2022/11/24 08:01:25;;;;;;;65.57;37.13;;;2.00;99.90;;;;;;8367603;28;20185;-79
2022/11/24 08:05:26;;;;;;;86.30;43.73;;;2.10;99.90;;;;;;8370185;28;20188;-79
2022/11/24 08:09:27;;;;;;;88.93;47.70;;;2.10;99.90;;;;;;8375761;28;20220;-79
2022/11/24 08:13:28;;;;;;;87.87;45.67;;;2.20;99.90;;;;;;8365464;28;20182;-78
2022/11/24 08:17:28;;;;;;;83.47;44.37;;;2.20;99.90;;;;;;8373547;28;20212;-78
2022/11/24 08:21:29;;;;;;;79.57;45.93;;;2.30;99.90;;;;;;8367289;28;20239;-79
2022/11/24 08:25:31;;;;;;;86.83;47.23;;;2.30;99.90;;;;;;8373713;28;20185;-79
2022/11/24 08:29:32;;;;;;;76.70;41.23;;;2.40;99.90;;;;;;8371769;28;20291;-79
2022/11/24 08:33:33;;;;;;;77.00;41.13;;;2.40;99.90;;;;;;8367384;28;20184;-79
2022/11/24 08:37:33;;;;;;;65.40;36.20;;;2.40;99.90;;;;;;8368905;28;20209;-79
2022/11/24 08:41:34;;;;;;;63.57;34.30;;;2.40;99.90;;;;;;8369399;28;20184;-78
2022/11/24 08:45:35;;;;;;;60.53;35.67;;;2.50;99.90;;;;;;8370324;28;20181;-78
2022/11/24 08:49:36;;;;;;;64.60;35.40;;;2.50;99.90;;;;;;8368499;28;20208;-78
2022/11/24 08:53:38;;;;;;;56.70;32.83;;;2.60;99.90;;;;;;8383220;28;20190;-79
2022/11/24 08:57:38;;;;;;;63.30;34.63;;;2.60;99.90;;;;;;8365502;28;20224;-78
2022/11/24 09:01:40;;;;;;;55.37;31.53;;;2.70;99.90;;;;;;8366067;28;20173;-77
2022/11/24 09:05:41;;;;;;;57.20;32.37;;;2.70;99.90;;;;;;8368561;28;20197;-78
2022/11/24 09:09:42;;;;;;;56.43;31.73;;;2.70;99.90;;;;;;8364197;28;20189;-78
2022/11/24 09:13:43;;;;;;;57.00;31.13;;;2.80;99.90;;;;;;8370846;28;20188;-78
2022/11/24 09:17:45;;;;;;;55.17;33.30;;;2.90;99.90;;;;;;8368094;28;20185;-78
2022/11/24 09:21:45;;;;;;;54.87;31.17;;;3.00;99.90;;;;;;8363409;28;20190;-78
2022/11/24 09:25:46;;;;;;;50.03;28.83;;;3.10;99.90;;;;;;8365129;28;20187;-78
2022/11/24 09:29:47;;;;;;;52.93;30.30;;;3.30;99.90;;;;;;8368696;28;20201;-78
2022/11/24 09:33:48;;;;;;;52.07;30.33;;;3.40;99.90;;;;;;8373122;28;20187;-78
2022/11/24 09:37:50;;;;;;;50.63;28.37;;;3.50;99.90;;;;;;8371959;28;20186;-77
2022/11/24 09:42:02;;;;;;;49.77;30.10;;;3.70;99.90;;;;;;8369734;28;20180;-78
2022/11/24 09:46:33;;;;;;;42.77;25.47;;;3.80;99.90;;;;;;8371038;28;20186;-78
2022/11/24 09:50:36;;;;;;;50.30;28.93;;;3.90;99.90;;;;;;8361246;28;20267;-78
2022/11/24 09:54:46;;;;;;;43.03;25.57;;;4.00;99.90;;;;;;8371077;28;20197;-79
2022/11/24 09:59:20;;;;;;;41.90;26.53;;;4.20;99.90;;;;;;8367461;28;20274;-78
2022/11/24 10:03:42;;;;;;;41.57;25.67;;;4.30;99.90;;;;;;8362803;28;20240;-77
2022/11/24 10:08:17;;;;;;;46.43;27.57;;;4.50;99.90;;;;;;8372701;28;20267;-77
2022/11/24 10:12:59;;;;;;;44.70;27.50;;;4.60;99.90;;;;;;8380685;28;20196;-77
2022/11/24 10:17:06;;;;;;;41.33;26.00;;;4.70;99.90;;;;;;8371815;28;20257;-78
2022/11/24 10:21:22;;;;;;;45.10;26.97;;;4.90;99.90;;;;;;8374896;28;20170;-78
2022/11/24 10:25:36;;;;;;;40.73;25.90;;;5.10;99.90;;;;;;8368766;28;20536;-78
2022/11/24 10:29:39;;;;;;;40.17;24.80;;;5.30;99.90;;;;;;8365698;28;20203;-78
2022/11/24 10:33:41;;;;;;;44.73;28.40;;;5.60;99.90;;;;;;8371351;28;20185;-78
2022/11/24 10:38:17;;;;;;;42.60;25.77;;;5.80;99.90;;;;;;8361443;28;20205;-78
2022/11/24 10:42:27;;;;;;;38.33;24.17;;;6.10;99.90;;;;;;8370636;28;20190;-78
2022/11/24 10:46:28;;;;;;;41.00;25.13;;;6.50;99.90;;;;;;8361447;28;20178;-78
2022/11/24 10:50:36;;;;;;;38.93;22.47;;;6.70;99.90;;;;;;8364293;28;20557;-78
2022/11/24 10:54:55;;;;;;;37.80;22.23;;;6.90;99.90;;;;;;8367213;28;20206;-78
2022/11/24 10:59:09;;;;;;;35.23;21.87;;;7.00;99.90;;;;;;8366338;28;20237;-79
2022/11/24 11:03:20;;;;;;;33.33;19.13;;;7.00;99.90;;;;;;8369982;28;20192;-78
2022/11/24 11:07:24;;;;;;;29.27;18.37;;;6.80;99.90;;;;;;8371281;28;20186;-78
2022/11/24 11:11:29;;;;;;;25.40;16.87;;;6.50;99.90;;;;;;8376338;28;20189;-79
2022/11/24 11:15:30;;;;;;;27.27;18.10;;;6.60;99.90;;;;;;8375418;28;20208;-78
2022/11/24 11:19:38;;;;;;;27.97;17.27;;;6.60;99.90;;;;;;8375055;28;20185;-79
2022/11/24 11:23:40;;;;;;;26.77;16.47;;;6.60;99.90;;;;;;8375864;28;20220;-79
2022/11/24 11:27:41;;;;;;;29.00;18.07;;;6.60;99.90;;;;;;8373089;28;20223;-79
2022/11/24 11:32:03;;;;;;;23.50;16.27;;;6.60;99.90;;;;;;8377145;28;20194;-79
2022/11/24 11:36:11;;;;;;;26.27;15.97;;;6.60;99.90;;;;;;8366701;28;20231;-78
2022/11/24 11:40:26;;;;;;;22.70;14.40;;;6.70;99.90;;;;;;8369637;28;20184;-78
2022/11/24 11:44:45;;;;;;;24.50;14.13;;;6.70;99.90;;;;;;8370255;28;20177;-79
2022/11/24 11:48:47;;;;;;;20.53;12.67;;;6.60;99.90;;;;;;8375283;28;20177;-78
2022/11/24 11:52:59;;;;;;;19.10;12.07;;;6.70;99.90;;;;;;8371035;28;20177;-78
2022/11/24 11:57:09;;;;;;;20.73;11.80;;;6.70;99.90;;;;;;8360513;28;20210;-78
2022/11/24 12:01:28;;;;;;;17.63;10.90;;;6.90;99.90;;;;;;8368914;28;20269;-78
2022/11/24 12:06:06;;;;;;;14.00;8.73;;;7.00;99.90;;;;;;8366024;28;20188;-78
2022/11/24 12:10:21;;;;;;;12.37;8.80;;;7.00;1.00;;;;;;8367787;28;20193;-78
2022/11/24 12:14:58;;;;;;;18.57;10.23;;;7.30;99.90;;;;;;8370119;28;20294;-78
2022/11/24 12:19:12;;;;;;;15.20;10.20;;;7.30;1.00;;;;;;8368140;28;20184;-78
2022/11/24 12:23:47;;;;;;;18.40;11.07;;;7.20;97.20;;;;;;8375063;28;20178;-77
2022/11/24 12:27:54;;;;;;;18.70;11.67;;;7.20;99.90;;;;;;8372970;28;20285;-77
2022/11/24 12:32:28;;;;;;;18.07;11.57;;;7.20;1.00;;;;;;8368000;28;20181;-78
2022/11/24 12:36:45;;;;;;;19.00;12.13;;;7.40;1.00;;;;;;8367210;28;20294;-78
2022/11/24 12:41:18;;;;;;;16.37;10.10;;;7.50;99.90;;;;;;8367855;28;20182;-77
2022/11/24 12:45:31;;;;;;;16.20;9.07;;;7.50;39.90;;;;;;8370291;28;20589;-78
2022/11/24 12:49:41;;;;;;;12.23;8.43;;;7.50;1.00;;;;;;8371973;28;20178;-77
2022/11/24 12:53:44;;;;;;;17.37;9.30;;;7.70;99.90;;;;;;8369809;28;20177;-77
2022/11/24 12:58:03;;;;;;;15.43;9.00;;;7.60;99.90;;;;;;8368348;28;20601;-78
2022/11/24 13:02:21;;;;;;;13.30;9.67;;;7.30;99.90;;;;;;8370806;28;20236;-78
2022/11/24 13:06:35;;;;;;;14.40;9.53;;;7.10;1.00;;;;;;8365909;28;20184;-78
2022/11/24 13:10:37;;;;;;;13.97;9.03;;;7.10;1.00;;;;;;8377716;28;20182;-77
2022/11/24 13:14:42;;;;;;;12.70;8.90;;;7.10;39.50;;;;;;8370977;28;20236;-77
2022/11/24 13:18:57;;;;;;;12.90;8.90;;;7.10;8.50;;;;;;8383938;28;20178;-77
2022/11/24 13:23:03;;;;;;;13.30;8.07;;;7.20;1.00;;;;;;8369444;28;20169;-78
2022/11/24 13:27:17;;;;;;;15.70;10.10;;;7.20;99.70;;;;;;8370270;28;20186;-77
2022/11/24 13:31:22;;;;;;;15.67;9.57;;;7.10;1.00;;;;;;8368524;28;20255;-78
2022/11/24 13:35:22;;;;;;;17.77;11.13;;;6.80;99.90;;;;;;8368859;28;20209;-78
2022/11/24 13:40:06;;;;;;;15.13;10.53;;;6.60;1.00;;;;;;8369934;28;20268;-78
2022/11/24 13:44:16;;;;;;;18.73;10.97;;;6.40;99.90;;;;;;8371909;28;20189;-78
2022/11/24 13:48:19;;;;;;;18.03;11.67;;;6.30;1.00;;;;;;8367544;28;20211;-78
2022/11/24 13:52:38;;;;;;;15.77;9.50;;;6.20;1.00;;;;;;8373804;28;20166;-76
2022/11/24 13:56:39;;;;;;;15.93;10.00;;;6.20;63.60;;;;;;8374283;28;20209;-77
2022/11/24 14:01:00;;;;;;;13.83;9.73;;;6.20;44.10;;;;;;8366186;28;20178;-78
2022/11/24 14:05:01;;;;;;;11.00;8.27;;;6.20;99.90;;;;;;8375558;28;20596;-77
2022/11/24 14:09:15;;;;;;;12.40;7.43;;;6.20;99.90;;;;;;8369954;28;20292;-78
2022/11/24 14:13:22;;;;;;;10.23;7.13;;;6.10;99.90;;;;;;8369578;28;20231;-78
2022/11/24 14:17:26;;;;;;;9.80;6.60;;;6.10;99.90;;;;;;8365319;28;20294;-78
2022/11/24 14:21:40;;;;;;;10.47;6.70;;;6.10;1.00;;;;;;8360613;28;20208;-77
2022/11/24 14:25:49;;;;;;;10.03;7.27;;;6.10;1.00;;;;;;8366846;28;20181;-78
2022/11/24 14:30:00;;;;;;;11.63;7.67;;;6.00;1.00;;;;;;8363671;28;20246;-77
2022/11/24 14:34:10;;;;;;;11.90;8.07;;;5.80;99.90;;;;;;8369380;28;20189;-78
2022/11/24 14:38:12;;;;;;;10.33;7.13;;;5.60;99.90;;;;;;8376125;28;20234;-78
2022/11/24 14:42:19;;;;;;;9.70;6.93;;;5.40;1.00;;;;;;8370305;28;20170;-78
2022/11/24 14:46:20;;;;;;;11.93;7.70;;;5.20;93.60;;;;;;8372662;28;20183;-78
2022/11/24 14:50:22;;;;;;;12.70;7.37;;;5.00;99.90;;;;;;8372958;28;20212;-78
2022/11/24 14:54:23;;;;;;;9.73;6.40;;;4.70;41.40;;;;;;8372825;28;20208;-78
2022/11/24 14:58:33;;;;;;;9.17;6.70;;;4.50;1.00;;;;;;8369947;28;20212;-78
2022/11/24 15:02:40;;;;;;;11.37;6.27;;;4.40;1.00;;;;;;8388174;28;20186;-77
2022/11/24 15:06:44;;;;;;;9.53;6.40;;;4.10;99.90;;;;;;8373375;28;20273;-79
2022/11/24 15:10:45;;;;;;;9.17;6.03;;;4.00;99.90;;;;;;8371025;28;20188;-78
2022/11/24 15:14:53;;;;;;;10.07;6.57;;;3.80;99.90;;;;;;8370486;28;20209;-78
2022/11/24 15:19:00;;;;;;;10.17;6.20;;;3.70;99.90;;;;;;8376633;28;20189;-78
2022/11/24 15:23:21;;;;;;;9.93;6.40;;;3.60;99.90;;;;;;8375079;28;20268;-78
2022/11/24 15:27:22;;;;;;;10.20;6.20;;;3.40;99.90;;;;;;8376122;28;20181;-78
2022/11/24 15:31:23;;;;;;;10.70;6.70;;;3.30;99.90;;;;;;8376505;28;20200;-78
2022/11/24 15:35:28;;;;;;;10.87;6.73;;;3.20;99.90;;;;;;8366809;28;20292;-78
2022/11/24 15:39:29;;;;;;;9.87;6.07;;;3.10;99.90;;;;;;8379701;28;20173;-77
2022/11/24 15:43:35;;;;;;;10.87;7.10;;;2.90;99.90;;;;;;8371190;28;20176;-78
2022/11/24 15:47:36;;;;;;;9.07;6.40;;;2.80;1.00;;;;;;8375145;28;20270;-78
2022/11/24 15:51:41;;;;;;;12.57;7.10;;;2.70;1.00;;;;;;8369625;28;20433;-78
2022/11/24 15:55:42;;;;;;;11.53;7.00;;;2.60;1.00;;;;;;8372180;28;20283;-78
2022/11/24 15:59:43;;;;;;;10.07;6.90;;;2.60;1.00;;;;;;8372547;28;20207;-78
2022/11/24 16:03:44;;;;;;;10.27;6.77;;;2.50;1.00;;;;;;8374328;28;20190;-78
2022/11/24 16:07:45;;;;;;;11.80;6.93;;;2.50;29.40;;;;;;8367028;28;20181;-78
2022/11/24 16:11:45;;;;;;;9.80;6.67;;;2.40;11.60;;;;;;8372677;28;20182;-78
2022/11/24 16:15:46;;;;;;;12.13;7.30;;;2.30;1.00;;;;;;8371515;28;20202;-78
2022/11/24 16:19:47;;;;;;;11.43;6.73;;;2.20;41.10;;;;;;8367751;28;20178;-78
2022/11/24 16:23:48;;;;;;;9.70;6.50;;;2.10;98.50;;;;;;8375723;28;20185;-79
2022/11/24 16:27:49;;;;;;;12.20;7.43;;;2.10;99.90;;;;;;8370172;28;20252;-77
2022/11/24 16:31:53;;;;;;;12.47;8.33;;;2.00;99.90;;;;;;8373579;28;20193;-79
2022/11/24 16:35:54;;;;;;;12.40;8.23;;;2.00;99.90;;;;;;8375679;28;20209;-77
2022/11/24 16:39:56;;;;;;;18.57;10.70;;;1.90;99.90;;;;;;8373847;28;20200;-77
2022/11/24 16:43:57;;;;;;;18.83;12.27;;;1.90;99.90;;;;;;8369280;28;20210;-77
2022/11/24 16:48:00;;;;;;;36.67;21.57;;;1.90;99.90;;;;;;8363538;28;20190;-77
2022/11/24 16:52:04;;;;;;;95.63;43.20;;;1.90;99.90;;;;;;8374174;28;20246;-80
2022/11/24 16:56:05;;;;;;;71.20;36.00;;;2.00;99.90;;;;;;8376195;28;20220;-77
2022/11/24 17:00:07;;;;;;;50.67;28.63;;;2.00;99.90;;;;;;8363143;28;20202;-77
2022/11/24 17:04:08;;;;;;;46.97;27.10;;;2.00;99.90;;;;;;8371487;28;20185;-77
2022/11/24 17:08:09;;;;;;;36.47;19.70;;;1.90;99.90;;;;;;8367580;28;20193;-78
2022/11/24 17:12:10;;;;;;;30.27;17.10;;;1.70;99.90;;;;;;8372080;28;20202;-77
2022/11/24 17:16:13;;;;;;;36.50;20.57;;;1.60;99.90;;;;;;8369084;28;20205;-77
2022/11/24 17:20:14;;;;;;;38.57;20.30;;;1.40;99.90;;;;;;8366349;28;20418;-80
2022/11/24 17:24:16;;;;;;;41.20;23.40;;;1.40;99.90;;;;;;8367271;28;20178;-77
2022/11/24 17:28:17;;;;;;;51.17;26.03;;;1.30;99.90;;;;;;8371318;28;20194;-77
2022/11/24 17:32:18;;;;;;;48.57;28.10;;;1.20;99.90;;;;;;8364173;28;20244;-78
2022/11/24 17:36:20;;;;;;;41.40;21.23;;;1.20;99.90;;;;;;8365873;28;20206;-78
2022/11/24 17:40:20;;;;;;;21.47;12.53;;;1.10;99.90;;;;;;8366534;28;20205;-79
2022/11/24 17:44:21;;;;;;;24.10;16.40;;;1.10;99.90;;;;;;8364401;28;20174;-79
2022/11/24 17:48:23;;;;;;;23.93;16.30;;;1.10;99.90;;;;;;8366486;28;20192;-79
2022/11/24 17:52:24;;;;;;;35.67;20.63;;;1.20;99.90;;;;;;8367640;28;20181;-78
2022/11/24 17:56:27;;;;;;;30.93;19.27;;;1.30;99.90;;;;;;8373009;28;20205;-79
2022/11/24 18:00:28;;;;;;;29.17;17.20;;;1.40;99.90;;;;;;8376533;28;20213;-79
2022/11/24 18:04:29;;;;;;;23.67;14.13;;;1.50;99.90;;;;;;8371610;28;20630;-79
2022/11/24 18:08:32;;;;;;;32.53;19.40;;;1.50;99.90;;;;;;8366910;28;20189;-79
2022/11/24 18:12:33;;;;;;;41.97;23.67;;;1.60;99.90;;;;;;8373629;28;20247;-78
2022/11/24 18:16:34;;;;;;;35.97;19.27;;;1.70;99.90;;;;;;8377124;28;20205;-78
2022/11/24 18:20:35;;;;;;;25.83;14.43;;;1.70;99.90;;;;;;8377730;28;20191;-78
2022/11/24 18:24:36;;;;;;;22.97;14.33;;;1.70;99.90;;;;;;8370921;28;20188;-78
2022/11/24 18:28:37;;;;;;;23.00;13.47;;;1.70;99.90;;;;;;8373395;28;20277;-78
2022/11/24 18:32:38;;;;;;;20.23;13.37;;;1.80;99.90;;;;;;8370953;28;20185;-79
2022/11/24 18:36:39;;;;;;;29.67;17.43;;;1.80;99.90;;;;;;8373193;28;20236;-79
2022/11/24 18:40:39;;;;;;;37.07;20.53;;;1.80;99.90;;;;;;8373631;28;20260;-78
2022/11/24 18:44:41;;;;;;;29.27;18.37;;;1.90;99.90;;;;;;8375265;28;20207;-78
2022/11/24 18:48:43;;;;;;;22.13;13.17;;;2.00;99.90;;;;;;8370445;28;20189;-78
2022/11/24 18:52:44;;;;;;;15.33;10.53;;;2.00;99.90;;;;;;8375510;28;20196;-78
2022/11/24 18:56:44;;;;;;;15.53;9.87;;;2.10;99.90;;;;;;8371244;28;20228;-78
2022/11/24 19:00:45;;;;;;;15.00;9.57;;;2.10;99.90;;;;;;8370200;28;20467;-79
2022/11/24 19:04:46;;;;;;;12.93;8.73;;;2.10;99.90;;;;;;8371127;28;20220;-79
2022/11/24 19:08:51;;;;;;;15.63;9.07;;;2.00;99.90;;;;;;8371677;28;20192;-79
2022/11/24 19:12:51;;;;;;;20.87;12.17;;;2.00;99.90;;;;;;8376341;28;20249;-78
2022/11/24 19:16:53;;;;;;;62.83;27.50;;;1.90;99.90;;;;;;8375655;28;20209;-78
2022/11/24 19:20:57;;;;;;;53.87;27.17;;;1.90;99.90;;;;;;8368526;28;20178;-78
2022/11/24 19:24:58;;;;;;;28.73;16.23;;;1.90;99.90;;;;;;8369226;28;20209;-78
2022/11/24 19:28:59;;;;;;;22.43;12.60;;;1.80;99.90;;;;;;8373879;28;20201;-78
2022/11/24 19:33:00;;;;;;;16.77;11.03;;;1.70;99.90;;;;;;8375126;28;20212;-78
2022/11/24 19:37:01;;;;;;;17.53;10.73;;;1.80;99.90;;;;;;8370346;28;20262;-79
2022/11/24 19:41:06;;;;;;;15.73;9.93;;;1.80;99.90;;;;;;8374183;28;20273;-78
2022/11/24 19:45:10;;;;;;;14.43;9.43;;;1.80;99.90;;;;;;8372012;28;20251;-79
2022/11/24 19:49:11;;;;;;;14.13;9.73;;;1.80;99.90;;;;;;8370968;28;20216;-78
2022/11/24 19:53:11;;;;;;;15.53;10.00;;;1.90;99.90;;;;;;8373452;28;20186;-78
2022/11/24 19:57:12;;;;;;;16.50;10.03;;;1.90;99.90;;;;;;8370041;28;20284;-78
2022/11/24 20:01:25;;;;;;;16.93;10.80;;;2.00;99.90;;;;;;8366625;28;20181;-78
2022/11/24 20:05:26;;;;;;;21.47;13.53;;;1.90;99.90;;;;;;8373462;28;20190;-79
2022/11/24 20:09:27;;;;;;;29.03;16.43;;;1.90;99.90;;;;;;8371213;28;20177;-78
2022/11/24 20:13:28;;;;;;;23.60;14.07;;;1.90;99.90;;;;;;8372487;28;20285;-79
2022/11/24 20:17:31;;;;;;;44.77;20.70;;;1.90;99.90;;;;;;8371231;28;20279;-78
2022/11/24 20:21:33;;;;;;;56.37;26.00;;;1.90;99.90;;;;;;8370869;28;20173;-77
2022/11/24 20:25:37;;;;;;;123.27;55.40;;;2.00;99.90;;;;;;8388383;28;20181;-78
2022/11/24 20:29:38;;;;;;;168.73;76.00;;;2.00;99.90;;;;;;8367395;28;20297;-77
2022/11/24 20:33:40;;;;;;;161.73;78.53;;;2.00;99.90;;;;;;8376583;28;20266;-77
2022/11/24 20:37:40;;;;;;;159.00;70.27;;;2.10;99.90;;;;;;8368229;28;20216;-78
2022/11/24 20:41:41;;;;;;;97.60;46.33;;;2.10;99.90;;;;;;8374230;28;20209;-77
2022/11/24 20:45:43;;;;;;;61.23;32.47;;;2.10;99.90;;;;;;8377308;28;20212;-79
2022/11/24 20:49:44;;;;;;;55.70;30.83;;;2.10;99.90;;;;;;8366854;28;20375;-79
2022/11/24 20:53:45;;;;;;;77.83;43.10;;;2.00;99.90;;;;;;8368394;28;20197;-79
2022/11/24 20:57:46;;;;;;;70.57;41.10;;;2.00;99.90;;;;;;8373461;28;20221;-79
2022/11/24 21:01:48;;;;;;;78.93;43.80;;;2.00;99.90;;;;;;8371452;28;20182;-79
2022/11/24 21:05:54;;;;;;;75.57;40.93;;;2.10;99.90;;;;;;8367328;28;20196;-80
2022/11/24 21:09:55;;;;;;;64.13;32.13;;;2.10;99.90;;;;;;8365368;28;20198;-79